createdAt,value
2017-03-22T00:00:47.287Z,0
2017-03-22T00:01:57.654Z,0
2017-03-22T00:03:07.716Z,0
2017-03-22T00:04:17.753Z,0
2017-03-22T00:05:28.080Z,0
2017-03-22T00:06:38.500Z,0
2017-03-22T00:07:48.850Z,0
2017-03-22T00:08:58.571Z,0
2017-03-22T00:10:08.923Z,0
2017-03-22T00:11:19.308Z,0
2017-03-22T00:12:29.354Z,0
2017-03-22T00:13:39.397Z,0
2017-03-22T00:14:49.749Z,0
2017-03-22T00:15:59.815Z,0
2017-03-22T00:17:10.158Z,0
2017-03-22T00:18:20.507Z,0
2017-03-22T00:19:30.223Z,0
2017-03-22T00:20:40.255Z,0
2017-03-22T00:21:50.609Z,0
2017-03-22T00:23:00.953Z,0
2017-03-22T00:24:11.309Z,0
2017-03-22T00:25:20.723Z,0
2017-03-22T00:26:31.061Z,0
2017-03-22T00:27:41.419Z,0
2017-03-22T00:28:51.758Z,0
2017-03-22T00:30:02.112Z,0
2017-03-22T00:31:11.842Z,0
2017-03-22T00:32:21.884Z,0
2017-03-22T00:33:32.236Z,0
2017-03-22T00:34:42.574Z,0
2017-03-22T00:35:52.932Z,0
2017-03-22T00:37:03.287Z,0
2017-03-22T00:38:13.322Z,0
2017-03-22T00:39:22.744Z,0
2017-03-22T00:40:33.107Z,0
2017-03-22T00:41:43.457Z,0
2017-03-22T00:42:53.810Z,0
2017-03-22T00:44:03.836Z,0
2017-03-22T00:45:14.184Z,0
2017-03-22T00:46:24.538Z,0
2017-03-22T00:47:34.862Z,0
2017-03-22T00:48:44.897Z,0
2017-03-22T00:49:55.253Z,0
2017-03-22T00:51:05.618Z,0
2017-03-22T00:52:15.966Z,0
2017-03-22T00:53:26.312Z,0
2017-03-22T00:54:36.346Z,0
2017-03-22T00:55:46.073Z,0
2017-03-22T00:56:55.781Z,0
2017-03-22T00:58:06.125Z,0
2017-03-22T00:59:16.478Z,0
2017-03-22T01:00:26.836Z,0
2017-03-22T01:01:37.187Z,0
2017-03-22T01:02:47.523Z,0
2017-03-22T01:03:57.870Z,0
2017-03-22T01:05:08.217Z,0
2017-03-22T01:06:18.245Z,0
2017-03-22T01:07:28.599Z,0
2017-03-22T01:08:38.649Z,0
2017-03-22T01:09:49.006Z,0
2017-03-22T01:10:59.340Z,0
2017-03-22T01:12:09.373Z,0
2017-03-22T01:13:19.731Z,0
2017-03-22T01:14:29.785Z,0
2017-03-22T01:15:39.827Z,0
2017-03-22T01:16:50.168Z,0
2017-03-22T01:18:00.245Z,0
2017-03-22T01:19:09.952Z,0
2017-03-22T01:20:20.304Z,0
2017-03-22T01:21:30.645Z,0
2017-03-22T01:22:40.992Z,0
2017-03-22T01:23:51.324Z,0
2017-03-22T01:25:01.680Z,0
2017-03-22T01:26:12.024Z,0
2017-03-22T01:27:22.054Z,0
2017-03-22T01:28:32.401Z,0
2017-03-22T01:29:42.473Z,0
2017-03-22T01:30:52.502Z,0
2017-03-22T01:32:02.845Z,0
2017-03-22T01:33:12.895Z,0
2017-03-22T01:34:23.252Z,0
2017-03-22T01:35:33.600Z,0
2017-03-22T01:36:43.929Z,0
2017-03-22T01:37:54.275Z,0
2017-03-22T01:39:04.641Z,0
2017-03-22T01:40:14.697Z,0
2017-03-22T01:41:24.712Z,0
2017-03-22T01:42:34.721Z,0
2017-03-22T01:43:44.759Z,0
2017-03-22T01:44:54.792Z,0
2017-03-22T01:46:05.129Z,0
2017-03-22T01:47:15.483Z,0
2017-03-22T01:48:25.585Z,0
2017-03-22T01:49:35.628Z,0
2017-03-22T01:50:45.670Z,0
2017-03-22T01:51:55.391Z,0
2017-03-22T01:53:05.425Z,0
2017-03-22T01:54:15.785Z,0
2017-03-22T01:55:25.824Z,0
2017-03-22T01:56:35.542Z,0
2017-03-22T01:57:45.888Z,0
2017-03-22T01:58:55.933Z,0
2017-03-22T02:00:06.318Z,0
2017-03-22T02:01:16.656Z,0
2017-03-22T02:02:26.687Z,0
2017-03-22T02:03:37.025Z,0
2017-03-22T02:04:47.059Z,0
2017-03-22T02:05:57.086Z,0
2017-03-22T02:07:07.445Z,0
2017-03-22T02:08:17.828Z,0
2017-03-22T02:09:28.180Z,0
2017-03-22T02:10:38.511Z,0
2017-03-22T02:11:48.866Z,0
2017-03-22T02:12:59.216Z,0
2017-03-22T02:14:09.256Z,0
2017-03-22T02:15:19.599Z,0
2017-03-22T02:16:29.928Z,0
2017-03-22T02:17:40.275Z,0
2017-03-22T02:18:50.310Z,0
2017-03-22T02:20:00.650Z,0
2017-03-22T02:21:10.999Z,0
2017-03-22T02:22:21.361Z,0
2017-03-22T02:23:31.695Z,0
2017-03-22T02:24:42.041Z,0
2017-03-22T02:25:52.378Z,0
2017-03-22T02:27:02.402Z,0
2017-03-22T02:28:12.749Z,0
2017-03-22T02:29:23.096Z,0
2017-03-22T02:30:33.141Z,0
2017-03-22T02:31:42.855Z,0
2017-03-22T02:32:53.192Z,0
2017-03-22T02:34:03.543Z,0
2017-03-22T02:35:13.579Z,0
2017-03-22T02:36:23.925Z,0
2017-03-22T02:37:34.270Z,0
2017-03-22T02:38:44.654Z,0
2017-03-22T02:39:54.694Z,0
2017-03-22T02:41:05.037Z,0
2017-03-22T02:42:15.054Z,0
2017-03-22T02:43:25.406Z,0
2017-03-22T02:44:35.118Z,0
2017-03-22T02:45:45.450Z,0
2017-03-22T02:46:55.482Z,0
2017-03-22T02:48:05.822Z,0
2017-03-22T02:49:16.169Z,0
2017-03-22T02:50:26.516Z,0
2017-03-22T02:51:36.862Z,0
2017-03-22T02:52:47.204Z,0
2017-03-22T02:53:57.565Z,0
2017-03-22T02:55:07.905Z,0
2017-03-22T02:56:17.611Z,0
2017-03-22T02:57:27.939Z,0
2017-03-22T02:58:38.278Z,0
2017-03-22T02:59:48.629Z,0
2017-03-22T03:00:58.962Z,0
2017-03-22T03:32:16.586Z,0
2017-03-22T03:33:26.918Z,0
2017-03-22T03:34:37.254Z,0
2017-03-22T03:35:47.590Z,0
2017-03-22T03:36:57.925Z,0
2017-03-22T03:38:07.950Z,0
2017-03-22T03:39:18.268Z,0
2017-03-22T03:40:28.306Z,0
2017-03-22T03:41:38.641Z,0
2017-03-22T03:42:48.664Z,0
2017-03-22T03:43:58.698Z,0
2017-03-22T03:45:09.070Z,0
2017-03-22T03:46:19.391Z,0
2017-03-22T03:47:29.732Z,0
2017-03-22T03:48:40.165Z,0
2017-03-22T03:49:50.212Z,0
2017-03-22T03:51:00.565Z,0
2017-03-22T03:52:10.932Z,0
2017-03-22T03:53:20.968Z,0
2017-03-22T03:54:31.318Z,0
2017-03-22T03:55:41.672Z,0
2017-03-22T03:56:52.024Z,0
2017-03-22T03:58:02.390Z,0
2017-03-22T03:59:12.116Z,0
2017-03-22T04:00:22.458Z,0
2017-03-22T04:01:32.499Z,0
2017-03-22T04:02:42.860Z,0
2017-03-22T04:03:52.888Z,0
2017-03-22T04:05:03.249Z,0
2017-03-22T04:06:13.583Z,0
2017-03-22T04:07:23.975Z,0
2017-03-22T04:08:34.328Z,0
2017-03-22T04:09:44.674Z,0
2017-03-22T04:10:55.002Z,0
2017-03-22T04:12:05.039Z,0
2017-03-22T04:13:15.062Z,0
2017-03-22T04:14:24.803Z,0
2017-03-22T04:15:35.153Z,0
2017-03-22T04:16:45.489Z,0
2017-03-22T04:17:55.838Z,0
2017-03-22T04:19:05.871Z,0
2017-03-22T04:20:16.198Z,0
2017-03-22T04:21:26.538Z,0
2017-03-22T04:22:36.571Z,0
2017-03-22T04:23:46.916Z,0
2017-03-22T04:24:57.310Z,0
2017-03-22T04:26:07.348Z,0
2017-03-22T04:27:17.388Z,0
2017-03-22T04:28:27.728Z,0
2017-03-22T04:29:38.080Z,0
2017-03-22T04:30:48.408Z,4
2017-03-22T04:31:58.760Z,4
2017-03-22T04:33:09.115Z,4
2017-03-22T04:34:19.451Z,0
2017-03-22T04:35:29.787Z,0
2017-03-22T04:36:40.120Z,0
2017-03-22T04:37:50.464Z,4
2017-03-22T04:39:00.800Z,4
2017-03-22T04:40:11.138Z,8
2017-03-22T04:41:21.484Z,4
2017-03-22T04:42:31.815Z,8
2017-03-22T04:43:42.147Z,8
2017-03-22T04:44:52.470Z,8
2017-03-22T04:46:02.824Z,8
2017-03-22T04:47:13.172Z,12
2017-03-22T04:48:23.522Z,16
2017-03-22T04:49:33.863Z,16
2017-03-22T04:50:44.210Z,20
2017-03-22T04:51:54.236Z,20
2017-03-22T04:53:04.580Z,24
2017-03-22T04:54:14.634Z,28
2017-03-22T04:55:24.980Z,28
2017-03-22T04:56:35.311Z,36
2017-03-22T04:57:45.639Z,40
2017-03-22T04:58:55.994Z,44
2017-03-22T05:00:06.347Z,48
2017-03-22T05:01:16.678Z,48
2017-03-22T05:02:26.699Z,56
2017-03-22T05:03:36.736Z,56
2017-03-22T05:04:47.081Z,64
2017-03-22T05:05:57.415Z,64
2017-03-22T05:07:07.765Z,72
2017-03-22T05:08:18.106Z,72
2017-03-22T05:09:27.814Z,76
2017-03-22T05:10:38.154Z,84
2017-03-22T05:11:48.522Z,88
2017-03-22T05:12:58.859Z,92
2017-03-22T05:14:08.907Z,96
2017-03-22T05:15:18.947Z,104
2017-03-22T05:16:28.975Z,108
2017-03-22T05:17:39.332Z,120
2017-03-22T05:18:49.666Z,128
2017-03-22T05:19:59.705Z,140
2017-03-22T05:21:10.047Z,148
2017-03-22T05:22:20.070Z,156
2017-03-22T05:23:30.113Z,168
2017-03-22T05:24:40.470Z,172
2017-03-22T05:25:50.817Z,180
2017-03-22T05:27:01.153Z,184
2017-03-22T05:28:11.518Z,188
2017-03-22T05:29:21.859Z,192
2017-03-22T05:30:31.589Z,196
2017-03-22T05:31:41.297Z,204
2017-03-22T05:32:51.640Z,216
2017-03-22T05:34:02.022Z,236
2017-03-22T05:35:12.042Z,256
2017-03-22T05:36:22.378Z,276
2017-03-22T05:37:32.400Z,288
2017-03-22T05:38:42.746Z,292
2017-03-22T05:39:53.100Z,292
2017-03-22T05:41:03.435Z,296
2017-03-22T05:42:13.463Z,300
2017-03-22T05:43:23.818Z,304
2017-03-22T05:44:34.165Z,308
2017-03-22T05:45:44.497Z,316
2017-03-22T05:46:54.831Z,324
2017-03-22T05:48:05.178Z,332
2017-03-22T05:49:15.518Z,348
2017-03-22T05:50:25.877Z,360
2017-03-22T05:51:35.606Z,372
2017-03-22T05:52:45.956Z,376
2017-03-22T05:53:55.986Z,388
2017-03-22T05:55:06.345Z,404
2017-03-22T05:56:16.694Z,424
2017-03-22T05:57:27.019Z,448
2017-03-22T05:58:37.370Z,468
2017-03-22T05:59:47.393Z,480
2017-03-22T06:00:57.748Z,492
2017-03-22T06:02:08.085Z,500
2017-03-22T06:03:18.449Z,524
2017-03-22T06:04:28.801Z,552
2017-03-22T06:05:38.837Z,564
2017-03-22T06:06:49.167Z,568
2017-03-22T06:07:59.519Z,564
2017-03-22T06:09:09.879Z,560
2017-03-22T06:10:20.215Z,560
2017-03-22T06:11:30.534Z,564
2017-03-22T06:12:40.874Z,580
2017-03-22T06:13:51.249Z,580
2017-03-22T06:15:01.276Z,560
2017-03-22T06:16:10.972Z,552
2017-03-22T06:17:20.999Z,560
2017-03-22T06:18:31.340Z,584
2017-03-22T06:19:41.674Z,616
2017-03-22T06:20:52.000Z,676
2017-03-22T06:22:02.354Z,756
2017-03-22T06:23:12.383Z,828
2017-03-22T06:24:22.423Z,896
2017-03-22T06:25:32.754Z,968
2017-03-22T06:26:43.107Z,1016
2017-03-22T06:27:53.444Z,1032
2017-03-22T06:29:03.777Z,1028
2017-03-22T06:30:13.838Z,1016
2017-03-22T06:31:24.183Z,1036
2017-03-22T06:32:34.515Z,1068
2017-03-22T06:33:44.868Z,1108
2017-03-22T06:34:55.208Z,1164
2017-03-22T06:36:05.235Z,1240
2017-03-22T06:37:15.273Z,1328
2017-03-22T06:38:25.300Z,1376
2017-03-22T06:39:35.318Z,1388
2017-03-22T06:40:45.333Z,1368
2017-03-22T06:41:55.359Z,1324
2017-03-22T06:43:05.709Z,1228
2017-03-22T06:44:15.761Z,1144
2017-03-22T06:45:26.109Z,1064
2017-03-22T06:46:36.135Z,1064
2017-03-22T06:47:46.469Z,1124
2017-03-22T06:48:56.510Z,1116
2017-03-22T06:50:06.860Z,1052
2017-03-22T06:51:17.198Z,1020
2017-03-22T06:52:27.536Z,1032
2017-03-22T06:53:37.575Z,1064
2017-03-22T06:54:47.919Z,1112
2017-03-22T06:55:57.944Z,1152
2017-03-22T06:57:08.312Z,1176
2017-03-22T06:58:18.691Z,1244
2017-03-22T06:59:29.049Z,1300
2017-03-22T07:00:39.391Z,1320
2017-03-22T07:01:49.737Z,1316
2017-03-22T07:02:59.509Z,1312
2017-03-22T07:04:09.859Z,1384
2017-03-22T07:05:20.201Z,1460
2017-03-22T07:06:30.234Z,1580
2017-03-22T07:07:40.568Z,1704
2017-03-22T07:08:50.905Z,1796
2017-03-22T07:10:01.261Z,1888
2017-03-22T07:11:11.288Z,1992
2017-03-22T07:12:21.625Z,2104
2017-03-22T07:13:31.657Z,2216
2017-03-22T07:14:41.679Z,2332
2017-03-22T07:15:52.025Z,2488
2017-03-22T07:17:02.363Z,2620
2017-03-22T07:18:12.400Z,2720
2017-03-22T07:19:22.436Z,2792
2017-03-22T07:20:32.774Z,2812
2017-03-22T07:21:42.487Z,2732
2017-03-22T07:22:52.835Z,2764
2017-03-22T07:24:03.176Z,2908
2017-03-22T07:25:13.522Z,3124
2017-03-22T07:26:23.859Z,3064
2017-03-22T07:27:34.187Z,2968
2017-03-22T07:28:44.218Z,3088
2017-03-22T07:29:54.581Z,3336
2017-03-22T07:31:04.972Z,3368
2017-03-22T07:32:15.335Z,3056
2017-03-22T07:33:25.390Z,2796
2017-03-22T07:34:35.743Z,2652
2017-03-22T07:35:46.104Z,2588
2017-03-22T07:36:56.139Z,2528
2017-03-22T07:38:06.199Z,2516
2017-03-22T07:39:16.574Z,2540
2017-03-22T07:40:26.990Z,2516
2017-03-22T07:41:37.331Z,2496
2017-03-22T07:42:47.702Z,2436
2017-03-22T07:43:58.075Z,2312
2017-03-22T07:45:08.135Z,2180
2017-03-22T07:46:18.478Z,2176
2017-03-22T07:47:28.815Z,2172
2017-03-22T07:48:38.873Z,2164
2017-03-22T07:49:49.226Z,2132
2017-03-22T07:50:59.562Z,2056
2017-03-22T07:52:09.905Z,2012
2017-03-22T07:53:20.254Z,2020
2017-03-22T07:54:30.290Z,2048
2017-03-22T07:55:40.013Z,2136
2017-03-22T07:56:50.044Z,2232
2017-03-22T07:58:00.379Z,2176
2017-03-22T07:59:10.739Z,2072
2017-03-22T08:00:21.091Z,2160
2017-03-22T08:01:31.183Z,2232
2017-03-22T08:02:41.525Z,2220
2017-03-22T08:03:51.874Z,2108
2017-03-22T08:05:02.207Z,1912
2017-03-22T08:06:11.929Z,1884
2017-03-22T08:07:22.262Z,1808
2017-03-22T08:08:32.616Z,1752
2017-03-22T08:09:42.978Z,1684
2017-03-22T08:10:53.321Z,1564
2017-03-22T08:12:03.690Z,1472
2017-03-22T08:13:14.036Z,1404
2017-03-22T08:14:24.384Z,1424
2017-03-22T08:15:34.429Z,1452
2017-03-22T08:16:44.789Z,1412
2017-03-22T08:17:55.139Z,1420
2017-03-22T08:19:05.188Z,1412
2017-03-22T08:20:14.921Z,1476
2017-03-22T08:21:25.267Z,1588
2017-03-22T08:22:35.315Z,1720
2017-03-22T08:23:45.683Z,1760
2017-03-22T08:24:55.741Z,1812
2017-03-22T08:26:06.067Z,1820
2017-03-22T08:27:16.130Z,1760
2017-03-22T08:28:26.487Z,1800
2017-03-22T08:29:36.833Z,1712
2017-03-22T08:30:47.173Z,1580
2017-03-22T08:31:57.205Z,1520
2017-03-22T08:33:07.238Z,1400
2017-03-22T08:34:17.267Z,1404
2017-03-22T08:35:26.975Z,1484
2017-03-22T08:36:37.313Z,1544
2017-03-22T08:37:47.665Z,1560
2017-03-22T08:38:57.704Z,1600
2017-03-22T08:40:07.727Z,1596
2017-03-22T08:41:18.085Z,1604
2017-03-22T08:42:28.440Z,1728
2017-03-22T08:43:38.817Z,1712
2017-03-22T08:44:48.541Z,1880
2017-03-22T08:45:58.587Z,1900
2017-03-22T08:47:08.941Z,2136
2017-03-22T08:48:18.654Z,2232
2017-03-22T08:49:28.378Z,2136
2017-03-22T08:50:38.723Z,2056
2017-03-22T08:51:48.749Z,2016
2017-03-22T08:52:59.087Z,2232
2017-03-22T08:54:09.452Z,2344
2017-03-22T08:55:19.794Z,2208
2017-03-22T08:56:29.837Z,2060
2017-03-22T08:57:39.867Z,2020
2017-03-22T08:58:50.216Z,2044
2017-03-22T09:00:00.557Z,2040
2017-03-22T09:01:10.926Z,2032
2017-03-22T09:02:21.295Z,2068
2017-03-22T09:03:31.655Z,1968
2017-03-22T09:04:42.020Z,1740
2017-03-22T09:05:52.366Z,1572
2017-03-22T09:07:02.724Z,1460
2017-03-22T09:08:12.743Z,1428
2017-03-22T09:09:22.771Z,1408
2017-03-22T09:10:33.125Z,1436
2017-03-22T09:11:43.464Z,1476
2017-03-22T09:12:53.804Z,1364
2017-03-22T09:14:04.148Z,1248
2017-03-22T09:15:14.480Z,1260
2017-03-22T09:16:24.825Z,1292
2017-03-22T09:17:35.203Z,1336
2017-03-22T09:18:45.254Z,1368
2017-03-22T09:19:55.295Z,1416
2017-03-22T09:21:05.627Z,1496
2017-03-22T09:22:15.980Z,1452
2017-03-22T09:23:26.334Z,1356
2017-03-22T09:24:36.705Z,1420
2017-03-22T09:25:47.075Z,1496
2017-03-22T09:26:57.414Z,1512
2017-03-22T09:28:07.781Z,1536
2017-03-22T09:29:18.157Z,1564
2017-03-22T09:30:28.517Z,1644
2017-03-22T09:31:38.247Z,1712
2017-03-22T09:32:48.593Z,1780
2017-03-22T09:33:58.307Z,1880
2017-03-22T09:35:08.369Z,2096
2017-03-22T09:36:18.719Z,2288
2017-03-22T09:37:28.773Z,2404
2017-03-22T09:38:38.813Z,2432
2017-03-22T09:39:48.841Z,2492
2017-03-22T09:40:58.874Z,2584
2017-03-22T09:42:09.214Z,2528
2017-03-22T09:43:19.241Z,2492
2017-03-22T09:44:29.584Z,2344
2017-03-22T09:45:39.639Z,2272
2017-03-22T09:46:50.007Z,2256
2017-03-22T09:48:00.368Z,2288
2017-03-22T09:49:10.720Z,2356
2017-03-22T09:50:20.746Z,2372
2017-03-22T09:51:31.092Z,2424
2017-03-22T09:52:41.440Z,2468
2017-03-22T09:53:51.708Z,2516
2017-03-22T09:55:02.045Z,2584
2017-03-22T09:56:12.410Z,2620
2017-03-22T09:57:22.446Z,2592
2017-03-22T09:58:32.468Z,2544
2017-03-22T09:59:42.836Z,2536
2017-03-22T10:00:53.173Z,2560
2017-03-22T10:02:03.509Z,2524
2017-03-22T10:03:13.862Z,2368
2017-03-22T10:04:23.896Z,2244
2017-03-22T10:05:33.930Z,2164
2017-03-22T10:06:44.280Z,2028
2017-03-22T10:07:54.322Z,1924
2017-03-22T10:09:04.357Z,1832
2017-03-22T10:10:14.382Z,1804
2017-03-22T10:11:24.749Z,1800
2017-03-22T10:12:35.105Z,1852
2017-03-22T10:13:45.116Z,2056
2017-03-22T10:14:55.142Z,2400
2017-03-22T10:16:05.180Z,2912
2017-03-22T10:17:15.516Z,3532
2017-03-22T10:18:25.547Z,3996
2017-03-22T10:19:35.899Z,4220
2017-03-22T10:20:46.251Z,3988
2017-03-22T10:21:56.582Z,3720
2017-03-22T10:23:06.629Z,3572
2017-03-22T10:24:17.076Z,3560
2017-03-22T10:25:27.438Z,3576
2017-03-22T10:26:37.821Z,3668
2017-03-22T10:27:48.167Z,3796
2017-03-22T10:28:58.523Z,4056
2017-03-22T10:30:08.883Z,4016
2017-03-22T10:31:19.225Z,3752
2017-03-22T10:32:29.254Z,3432
2017-03-22T10:33:39.288Z,3300
2017-03-22T10:34:49.600Z,3072
2017-03-22T10:35:59.940Z,2920
2017-03-22T10:37:10.275Z,2820
2017-03-22T10:38:19.986Z,2704
2017-03-22T10:39:30.004Z,2684
2017-03-22T10:40:39.725Z,2688
2017-03-22T10:41:50.066Z,2660
2017-03-22T10:43:00.097Z,2600
2017-03-22T10:44:10.435Z,2496
2017-03-22T10:45:20.456Z,2352
2017-03-22T10:46:30.813Z,2376
2017-03-22T10:47:40.831Z,2464
2017-03-22T10:48:51.167Z,2496
2017-03-22T10:50:01.486Z,2496
2017-03-22T10:51:11.520Z,2468
2017-03-22T10:52:21.850Z,2372
2017-03-22T10:53:32.187Z,2308
2017-03-22T10:54:42.206Z,2196
2017-03-22T10:55:52.557Z,2040
2017-03-22T10:57:02.903Z,1920
2017-03-22T10:58:12.941Z,1940
2017-03-22T10:59:23.265Z,2032
2017-03-22T11:00:33.595Z,2008
2017-03-22T11:01:43.621Z,1912
2017-03-22T11:02:53.997Z,1808
2017-03-22T11:04:04.354Z,1828
2017-03-22T11:05:14.379Z,1892
2017-03-22T11:06:24.756Z,1916
2017-03-22T11:07:35.098Z,1924
2017-03-22T11:08:45.437Z,1876
2017-03-22T11:09:55.486Z,1764
2017-03-22T11:11:05.812Z,1720
2017-03-22T11:12:16.149Z,1796
2017-03-22T11:13:26.484Z,1848
2017-03-22T11:14:36.509Z,1880
2017-03-22T11:15:46.864Z,1960
2017-03-22T11:16:57.461Z,2116
2017-03-22T11:18:07.485Z,2244
2017-03-22T11:19:17.826Z,2272
2017-03-22T11:20:27.544Z,2304
2017-03-22T11:21:37.885Z,2424
2017-03-22T11:22:48.248Z,2500
2017-03-22T11:23:57.982Z,2600
2017-03-22T11:25:08.026Z,2604
2017-03-22T11:26:18.365Z,2564
2017-03-22T11:27:28.714Z,2620
2017-03-22T11:28:39.044Z,2756
2017-03-22T11:29:49.391Z,2808
2017-03-22T11:30:59.099Z,2920
2017-03-22T11:32:09.100Z,2948
2017-03-22T11:33:19.127Z,2848
2017-03-22T11:34:29.185Z,3088
2017-03-22T11:35:39.532Z,3492
2017-03-22T11:36:49.274Z,3680
2017-03-22T11:37:58.974Z,3780
2017-03-22T11:39:08.990Z,4048
2017-03-22T11:40:19.020Z,4452
2017-03-22T11:41:29.359Z,4744
2017-03-22T11:42:39.392Z,4976
2017-03-22T11:43:49.742Z,5004
2017-03-22T11:44:59.778Z,4472
2017-03-22T11:46:10.126Z,4316
2017-03-22T11:47:20.166Z,4128
2017-03-22T11:48:30.203Z,3720
2017-03-22T11:49:40.530Z,3480
2017-03-22T11:50:50.555Z,3852
2017-03-22T11:52:00.605Z,4380
2017-03-22T11:53:10.957Z,5444
2017-03-22T11:54:21.295Z,6504
2017-03-22T11:55:31.657Z,5576
2017-03-22T11:56:41.991Z,4316
2017-03-22T11:57:52.356Z,3616
2017-03-22T11:59:02.707Z,3364
2017-03-22T12:00:13.042Z,3336
2017-03-22T12:01:23.403Z,3308
2017-03-22T12:02:33.747Z,3200
2017-03-22T12:03:43.765Z,3192
2017-03-22T12:04:54.122Z,3296
2017-03-22T12:06:04.462Z,3344
2017-03-22T12:07:14.782Z,3188
2017-03-22T12:08:24.800Z,3100
2017-03-22T12:09:34.915Z,3016
2017-03-22T12:10:45.270Z,2952
2017-03-22T12:11:55.623Z,2928
2017-03-22T12:13:05.941Z,3048
2017-03-22T12:14:16.280Z,3116
2017-03-22T12:15:26.297Z,3120
2017-03-22T12:16:36.325Z,3144
2017-03-22T12:17:46.377Z,3064
2017-03-22T12:18:56.734Z,3128
2017-03-22T12:20:07.169Z,3156
2017-03-22T12:21:17.513Z,3008
2017-03-22T12:22:27.535Z,2956
2017-03-22T12:23:37.553Z,2848
2017-03-22T12:24:47.899Z,2680
2017-03-22T12:25:57.655Z,2688
2017-03-22T12:27:07.996Z,2840
2017-03-22T12:28:18.326Z,3164
2017-03-22T12:29:28.681Z,3600
2017-03-22T12:30:39.021Z,3816
2017-03-22T12:31:49.056Z,3800
2017-03-22T12:32:59.396Z,4196
2017-03-22T12:34:09.731Z,4172
2017-03-22T12:35:20.072Z,4708
2017-03-22T12:36:30.420Z,5224
2017-03-22T12:37:40.462Z,4116
2017-03-22T12:38:50.802Z,3744
2017-03-22T12:40:01.197Z,4232
2017-03-22T12:41:11.252Z,4604
2017-03-22T12:42:21.595Z,5056
2017-03-22T12:43:31.935Z,5776
2017-03-22T12:44:42.286Z,6996
2017-03-22T12:45:52.632Z,7904
2017-03-22T12:47:02.655Z,7624
2017-03-22T12:48:13.005Z,7016
2017-03-22T12:49:23.342Z,5760
2017-03-22T12:50:33.665Z,5064
2017-03-22T12:51:43.700Z,4652
2017-03-22T12:52:54.044Z,4028
2017-03-22T12:54:04.389Z,3996
2017-03-22T12:55:14.723Z,3548
2017-03-22T12:56:25.073Z,3068
2017-03-22T12:57:35.095Z,2696
2017-03-22T12:58:44.823Z,2520
2017-03-22T12:59:54.892Z,2480
2017-03-22T13:01:05.249Z,2492
2017-03-22T13:02:15.605Z,2500
2017-03-22T13:03:25.963Z,2452
2017-03-22T13:04:36.301Z,2404
2017-03-22T13:05:46.670Z,2352
2017-03-22T13:06:56.379Z,2328
2017-03-22T13:08:06.425Z,2300
2017-03-22T13:09:16.773Z,2232
2017-03-22T13:10:26.808Z,2228
2017-03-22T13:11:36.546Z,2228
2017-03-22T13:12:46.941Z,2300
2017-03-22T13:13:57.272Z,2364
2017-03-22T13:15:07.328Z,2444
2017-03-22T13:16:17.382Z,2524
2017-03-22T13:17:27.394Z,2512
2017-03-22T13:18:37.745Z,2452
2017-03-22T13:19:48.095Z,2448
2017-03-22T13:20:58.122Z,2532
2017-03-22T13:22:08.190Z,2704
2017-03-22T13:23:18.233Z,2856
2017-03-22T13:24:28.287Z,2976
2017-03-22T13:25:38.640Z,3020
2017-03-22T13:26:48.352Z,3008
2017-03-22T13:27:58.374Z,3028
2017-03-22T13:29:08.713Z,3052
2017-03-22T13:30:19.065Z,3028
2017-03-22T13:31:29.409Z,3008
2017-03-22T13:32:39.757Z,3032
2017-03-22T13:33:50.128Z,3076
2017-03-22T13:35:00.444Z,3016
2017-03-22T13:36:10.860Z,3020
2017-03-22T13:37:21.222Z,3128
2017-03-22T13:38:31.550Z,3072
2017-03-22T13:39:41.292Z,3108
2017-03-22T13:40:51.633Z,3184
2017-03-22T13:42:01.983Z,3168
2017-03-22T13:43:12.004Z,3140
2017-03-22T13:44:22.044Z,3200
2017-03-22T13:45:32.385Z,3132
2017-03-22T13:46:42.768Z,3184
2017-03-22T13:47:53.138Z,3252
2017-03-22T13:49:03.175Z,3316
2017-03-22T13:50:13.195Z,3352
2017-03-22T13:51:23.542Z,3576
2017-03-22T13:52:33.888Z,3628
2017-03-22T13:53:44.243Z,3620
2017-03-22T13:54:54.577Z,3468
2017-03-22T13:56:04.926Z,3300
2017-03-22T13:57:14.952Z,3180
2017-03-22T13:58:25.315Z,3048
2017-03-22T13:59:35.673Z,2900
2017-03-22T14:00:46.273Z,2684
2017-03-22T14:01:56.659Z,2624
2017-03-22T14:03:06.692Z,2672
2017-03-22T14:04:16.408Z,2716
2017-03-22T14:05:26.754Z,2732
2017-03-22T14:06:36.472Z,2828
2017-03-22T14:07:46.507Z,3160
2017-03-22T14:08:56.541Z,3588
2017-03-22T14:10:06.879Z,3536
2017-03-22T14:11:16.601Z,3372
2017-03-22T14:12:26.324Z,3332
2017-03-22T14:13:36.361Z,3288
2017-03-22T14:14:46.081Z,3284
2017-03-22T14:15:56.423Z,3140
2017-03-22T14:17:06.775Z,2928
2017-03-22T14:18:16.806Z,2804
2017-03-22T14:19:26.851Z,2688
2017-03-22T14:20:37.191Z,2624
2017-03-22T14:21:47.551Z,2524
2017-03-22T14:22:57.609Z,2468
2017-03-22T14:24:07.647Z,2496
2017-03-22T14:25:18.008Z,2480
2017-03-22T14:26:27.724Z,2408
2017-03-22T14:27:37.439Z,2492
2017-03-22T14:28:47.483Z,2720
2017-03-22T14:29:57.528Z,2896
2017-03-22T14:31:07.908Z,3176
2017-03-22T14:32:18.248Z,3280
2017-03-22T14:33:28.594Z,3244
2017-03-22T14:34:38.950Z,3296
2017-03-22T14:35:49.287Z,3280
2017-03-22T14:36:59.298Z,3256
2017-03-22T14:38:09.653Z,3304
2017-03-22T14:39:19.700Z,3352
2017-03-22T14:40:29.130Z,3332
2017-03-22T14:41:39.478Z,3384
2017-03-22T14:42:49.808Z,3436
2017-03-22T14:44:00.194Z,3620
2017-03-22T14:45:10.527Z,3824
2017-03-22T14:46:20.568Z,3980
2017-03-22T14:47:30.596Z,3988
2017-03-22T14:48:40.618Z,3796
2017-03-22T14:49:50.969Z,3776
2017-03-22T14:51:01.362Z,3688
2017-03-22T14:52:11.703Z,3692
2017-03-22T14:53:22.037Z,3716
2017-03-22T14:54:32.409Z,3740
2017-03-22T14:55:42.760Z,3716
2017-03-22T14:56:53.109Z,3664
2017-03-22T14:58:03.462Z,3540
2017-03-22T14:59:13.789Z,3456
2017-03-22T15:00:24.147Z,3380
2017-03-22T15:01:34.189Z,3240
2017-03-22T15:02:44.601Z,3248
2017-03-22T15:03:54.949Z,3320
2017-03-22T15:05:04.992Z,3264
2017-03-22T15:06:15.333Z,3116
2017-03-22T15:07:25.717Z,3052
2017-03-22T15:08:35.815Z,2948
2017-03-22T15:09:46.168Z,2880
2017-03-22T15:10:56.212Z,2800
2017-03-22T15:12:06.570Z,2748
2017-03-22T15:13:16.853Z,2748
2017-03-22T15:14:27.199Z,2792
2017-03-22T15:15:37.539Z,2764
2017-03-22T15:16:47.922Z,2616
2017-03-22T15:17:58.255Z,2580
2017-03-22T15:19:08.601Z,2592
2017-03-22T15:20:19.015Z,2508
2017-03-22T15:21:29.067Z,2404
2017-03-22T15:22:39.415Z,2328
2017-03-22T15:23:49.766Z,2276
2017-03-22T15:25:00.115Z,2256
2017-03-22T15:26:10.458Z,2284
2017-03-22T15:27:20.787Z,2344
2017-03-22T15:28:31.125Z,2324
2017-03-22T15:29:40.855Z,2276
2017-03-22T15:30:51.201Z,2148
2017-03-22T15:32:01.547Z,2072
2017-03-22T15:33:11.926Z,2064
2017-03-22T15:34:21.978Z,1976
2017-03-22T15:35:32.371Z,1916
2017-03-22T15:36:42.751Z,1844
2017-03-22T15:37:52.785Z,1812
2017-03-22T15:39:03.134Z,1748
2017-03-22T15:40:13.482Z,1648
2017-03-22T15:41:23.860Z,1540
2017-03-22T15:42:34.220Z,1484
2017-03-22T15:43:44.569Z,1480
2017-03-22T15:44:54.923Z,1440
2017-03-22T15:46:05.272Z,1376
2017-03-22T15:47:15.609Z,1356
2017-03-22T15:48:25.951Z,1336
2017-03-22T15:49:36.310Z,1312
2017-03-22T15:50:46.342Z,1340
2017-03-22T15:51:56.691Z,1372
2017-03-22T15:53:07.042Z,1352
2017-03-22T15:54:16.778Z,1316
2017-03-22T15:55:26.830Z,1296
2017-03-22T15:56:36.873Z,1292
2017-03-22T15:57:46.909Z,1296
2017-03-22T15:58:57.297Z,1320
2017-03-22T16:00:07.338Z,1328
2017-03-22T16:01:17.411Z,1332
2017-03-22T16:02:27.845Z,1348
2017-03-22T16:03:38.193Z,1380
2017-03-22T16:04:48.525Z,1400
2017-03-22T16:05:58.870Z,1396
2017-03-22T16:07:09.247Z,1408
2017-03-22T16:08:19.619Z,1384
2017-03-22T16:09:29.657Z,1336
2017-03-22T16:10:39.997Z,1296
2017-03-22T16:11:50.351Z,1276
2017-03-22T16:13:00.395Z,1260
2017-03-22T16:14:10.422Z,1252
2017-03-22T16:15:20.799Z,1228
2017-03-22T16:16:31.149Z,1192
2017-03-22T16:17:41.518Z,1132
2017-03-22T16:18:51.861Z,1084
2017-03-22T16:20:02.218Z,1048
2017-03-22T16:21:12.579Z,1048
2017-03-22T16:22:22.949Z,1040
2017-03-22T16:23:33.305Z,1012
2017-03-22T16:24:43.702Z,940
2017-03-22T16:25:54.070Z,852
2017-03-22T16:27:04.122Z,780
2017-03-22T16:28:14.522Z,760
2017-03-22T16:29:24.878Z,744
2017-03-22T16:30:35.263Z,684
2017-03-22T16:31:45.617Z,652
2017-03-22T16:32:55.671Z,612
2017-03-22T16:34:05.711Z,572
2017-03-22T16:35:16.095Z,536